Latest Weather Observations for Kalumburu

IDD60801

Issued at 4:01 pm CST Tuesday 21 April 2015 (issued every 30 minutes, with the page automatically refreshed every 10 minutes)

About weather observations | Map of weather stations | Latest weather observations for NT | Other Formats
Station Details ID: 001019 Name: KALUMBURU Lat: -14.30 Lon: 126.65 Height: 23.0 m
Data from the previous 72 hours. | See also: Recent months at Kalumburu
Date/Time
CST
Temp
°C
App
Temp
°C
Dew
Point
Rel
Hum
%
Delta-T
°C
Wind Press
QNH
hPa
Press
MSL
hPa
Rain
since 9 am
mm
Dir
 
Spd
km/h
Gust
km/h
Spd
kts
Gust
kts
21/04:00pm 30.9 29.4 11.8 31 11.2 ENE 11 20 6 11 1010.1 1009.9 0.0
21/03:30pm 31.6 29.7 11.9 30 11.6 ENE 13 20 7 11 1010.3 1010.1 0.0
21/03:00pm 31.7 29.9 12.0 30 11.6 E 13 20 7 11 1010.6 1010.4 0.0
21/02:30pm 31.3 28.4 11.1 29 11.7 E 17 32 9 17 1010.9 1010.7 0.0
21/02:00pm 31.4 29.9 13.2 33 10.9 ESE 13 24 7 13 1011.0 1010.8 0.0
21/01:30pm 31.4 29.5 11.7 29 11.5 E 13 20 7 11 1011.3 1011.1 0.0
21/01:00pm 31.3 28.8 12.2 31 11.3 E 17 26 9 14 1011.9 1011.7 0.0
21/12:30pm 30.7 27.8 11.1 30 11.3 E 17 28 9 15 1012.5 1012.3 0.0
21/12:00pm 30.5 28.6 11.9 31 10.9 ESE 13 20 7 11 1012.8 1012.6 0.0
21/11:30am 30.0 27.5 11.0 31 10.9 ESE 15 28 8 15 1013.3 1013.1 0.0
21/11:00am 29.9 27.2 10.5 30 11.1 E 15 28 8 15 1013.4 1013.2 0.0
21/10:30am 29.6 27.3 11.6 33 10.4 ESE 15 26 8 14 1013.7 1013.5 0.0
21/10:00am 28.8 26.3 10.9 33 10.2 SE 15 24 8 13 1013.2 1013.0 0.0
21/09:30am 28.1 25.4 10.3 33 10.0 SE 15 28 8 15 1012.9 1012.7 0.0
21/09:00am 27.3 25.4 10.5 35 9.5 SE 11 20 6 11 1012.9 1012.7 0.0
21/08:30am 26.3 24.7 11.6 40 8.4 SSE 11 19 6 10 1012.8 1012.6 0.0
21/08:00am 25.4 24.3 11.9 43 7.7 SSE 9 17 5 9 1012.6 1012.4 0.0
21/07:30am 23.8 23.1 11.5 46 6.9 SSE 6 11 3 6 1012.2 1012.0 0.0
21/07:00am 23.8 23.0 11.8 47 6.8 S 7 9 4 5 1012.4 1012.2 0.0
21/06:30am 24.3 23.8 12.6 48 6.7 S 7 13 4 7 1012.1 1011.9 0.0
21/06:00am 23.6 23.8 14.3 56 5.5 SSW 6 9 3 5 1011.9 1011.7 0.0
21/05:30am 23.7 24.1 15.2 59 5.1 SW 7 11 4 6 1012.0 1011.8 0.0
21/05:00am 24.0 24.4 15.2 58 5.3 SW 7 9 4 5 1011.7 1011.5 0.0
21/04:30am 24.2 24.9 15.7 59 5.1 WSW 6 9 3 5 1011.2 1011.0 0.0
21/04:00am 24.4 25.2 16.4 61 4.9 WSW 7 11 4 6 1011.0 1010.8 0.0
21/03:30am 24.3 25.4 17.1 64 4.5 WSW 7 9 4 5 1011.0 1010.8 0.0
21/03:00am 24.1 24.9 17.4 66 4.2 SW 9 13 5 7 1011.2 1011.0 0.0
21/02:30am 24.4 25.6 17.4 65 4.4 WSW 7 11 4 6 1011.1 1010.9 0.0
21/02:00am 24.4 25.9 17.6 66 4.2 WSW 6 9 3 5 1011.3 1011.1 0.0
21/01:30am 24.6 26.0 17.8 66 4.3 WSW 7 9 4 5 1011.5 1011.3 0.0
21/01:00am 25.5 26.9 17.7 62 4.9 S 7 11 4 6 1011.7 1011.5 0.0
21/12:30am 25.8 27.0 17.4 59 5.3 SSE 7 9 4 5 1011.6 1011.4 0.0
21/12:00am 25.9 27.0 17.0 58 5.5 SE 7 13 4 7 1011.8 1011.6 0.0
 
Date/Time
CST
Temp
°C
App
Temp
°C
Dew
Point
Rel
Hum
%
Delta-T
°C
Wind Press
QNH
hPa
Press
MSL
hPa
Rain
since 9 am
mm
Dir
 
Spd
km/h
Gust
km/h
Spd
kts
Gust
kts
20/11:30pm 26.8 27.7 16.7 54 6.3 ESE 7 15 4 8 1011.9 1011.7 0.0
20/11:00pm 27.1 27.4 17.0 54 6.3 ESE 11 19 6 10 1011.7 1011.5 0.0
20/10:30pm 25.8 26.8 16.9 58 5.5 E 7 13 4 7 1012.0 1011.8 0.0
20/10:00pm 26.2 27.6 17.3 58 5.6 E 6 11 3 6 1012.1 1011.9 0.0
20/09:30pm 25.2 26.7 17.7 63 4.7 SSE 6 6 3 3 1011.9 1011.7 0.0
20/09:00pm 25.7 28.0 17.6 61 5.1 ENE 2 6 1 3 1011.7 1011.5 0.0
20/08:30pm 27.1 28.4 17.6 56 6.0 ENE 7 11 4 6 1011.5 1011.3 0.0
20/08:00pm 26.4 28.1 18.0 60 5.3 SE 6 7 3 4 1011.0 1010.8 0.0
20/07:30pm 28.2 29.4 16.8 50 7.1 E 6 9 3 5 1010.9 1010.7 0.0
20/07:00pm 29.7 30.0 16.1 43 8.5 E 9 13 5 7 1010.5 1010.3 0.0
20/06:30pm 31.0 30.5 15.8 40 9.5 E 13 20 7 11 1010.3 1010.1 0.0
20/06:00pm 31.8 30.7 15.3 37 10.2 ENE 15 24 8 13 1010.0 1009.8 0.0
20/05:30pm 32.4 30.9 15.4 36 10.6 E 17 30 9 16 1009.9 1009.7 0.0
20/05:00pm 32.9 32.0 15.8 35 10.7 ENE 15 26 8 14 1009.5 1009.3 0.0
20/04:30pm 33.1 32.1 15.6 35 10.9 E 15 24 8 13 1009.4 1009.2 0.0
20/04:00pm 33.2 31.9 15.7 35 10.9 ENE 17 30 9 16 1009.4 1009.2 0.0
20/03:30pm 33.3 31.4 15.8 35 11.0 ENE 20 32 11 17 1009.5 1009.3 0.0
20/03:00pm 34.0 33.5 16.8 35 11.0 ENE 15 26 8 14 1009.7 1009.5 0.0
20/02:30pm 33.1 31.3 15.6 35 10.9 ENE 19 28 10 15 1010.1 1009.9 0.0
20/02:00pm 32.9 31.1 15.4 35 10.9 ESE 19 32 10 17 1010.4 1010.2 0.0
20/01:30pm 32.3 29.5 14.4 33 11.0 ESE 22 30 12 16 1010.9 1010.7 0.0
20/01:00pm 32.2 29.8 13.9 33 11.1 ESE 19 33 10 18 1011.5 1011.3 0.0
20/12:30pm 31.7 29.1 13.9 34 10.8 E 20 35 11 19 1012.0 1011.8 0.0
20/12:00pm 31.3 28.6 13.6 34 10.7 ESE 20 35 11 19 1012.4 1012.2 0.0
20/11:30am 30.7 27.8 13.0 33 10.5 ESE 20 32 11 17 1013.0 1012.8 0.0
20/11:00am 30.4 28.3 13.7 36 10.0 SE 17 28 9 15 1013.0 1012.8 0.0
20/10:30am 29.7 27.3 14.3 39 9.3 ESE 20 32 11 17 1013.0 1012.8 0.0
20/10:00am 29.0 26.1 15.2 43 8.4 SE 24 37 13 20 1012.9 1012.7 0.0
20/09:30am 28.5 25.8 14.7 43 8.4 SE 22 33 12 18 1012.7 1012.5 0.0
20/09:00am 27.7 25.9 15.4 47 7.5 SE 19 32 10 17 1012.9 1012.7 0.0
20/08:30am 27.5 26.3 16.1 49 7.0 SE 17 35 9 19 1012.8 1012.6 0.0
20/08:00am 27.0 26.0 16.6 53 6.5 SE 17 30 9 16 1012.6 1012.4 0.0
20/07:30am 26.3 26.0 17.4 58 5.6 ESE 15 24 8 13 1012.2 1012.0 0.0
20/07:00am 26.1 26.3 17.7 60 5.3 SE 13 20 7 11 1011.6 1011.4 0.0
20/06:30am 26.2 26.6 18.1 61 5.1 SE 13 24 7 13 1011.5 1011.3 0.0
20/06:00am 26.1 26.9 18.2 61 5.0 SSE 11 17 6 9 1011.2 1011.0 0.0
20/05:30am 26.4 27.1 18.8 63 4.9 SE 13 22 7 12 1010.9 1010.7 0.0
20/05:00am 25.6 27.4 19.5 69 3.9 SE 9 15 5 8 1010.6 1010.4 0.0
20/04:30am 23.6 26.9 19.9 80 2.4 SE 2 7 1 4 1010.7 1010.5 0.0
20/04:00am 23.7 27.5 20.2 81 2.3 CALM 0 0 0 0 1010.8 1010.6 0.0
20/03:30am 23.6 27.4 20.1 81 2.3 CALM 0 0 0 0 1011.0 1010.8 0.0
20/03:00am 23.8 26.9 20.3 81 2.3 SE 4 7 2 4 1011.6 1011.4 0.0
20/02:30am 24.9 27.4 20.2 75 3.1 S 7 9 4 5 1012.1 1011.9 0.0
20/02:00am 24.3 27.1 20.4 79 2.5 S 6 7 3 4 1012.5 1012.3 0.0
20/01:30am 25.3 27.8 19.9 72 3.5 S 6 7 3 4 1013.1 1012.9 0.0
20/01:00am 24.1 27.1 19.2 74 3.1 SW 2 7 1 4 1013.4 1013.2 0.0
20/12:30am 24.6 26.9 19.4 73 3.3 SW 6 7 3 4 1013.7 1013.5 0.0
20/12:00am 24.6 27.0 19.7 74 3.2 S 6 9 3 5 1013.7 1013.5 0.0
 
Date/Time
CST
Temp
°C
App
Temp
°C
Dew
Point
Rel
Hum
%
Delta-T
°C
Wind Press
QNH
hPa
Press
MSL
hPa
Rain
since 9 am
mm
Dir
 
Spd
km/h
Gust
km/h
Spd
kts
Gust
kts
19/11:30pm 24.9 27.2 18.6 68 4.0 NW 4 7 2 4 1013.7 1013.5 0.0
19/11:00pm 25.7 27.4 18.4 64 4.6 S 7 13 4 7 1013.5 1013.3 0.0
19/10:30pm 25.0 27.8 18.9 69 3.9 SSW 2 6 1 3 1013.3 1013.1 0.0
19/10:00pm 25.2 27.4 19.3 70 3.8 S 6 6 3 3 1013.1 1012.9 0.0
19/09:30pm 25.9 28.9 20.9 74 3.3 SSW 6 7 3 4 1012.9 1012.7 0.0
19/09:00pm 25.9 29.1 18.8 65 4.5 CALM 0 0 0 0 1012.8 1012.6 0.0
19/08:30pm 26.4 28.5 18.0 60 5.3 SSE 4 6 2 3 1012.2 1012.0 0.0
19/08:00pm 27.2 30.2 18.5 59 5.6 CALM 0 4 0 2 1011.5 1011.3 0.0
19/07:30pm 28.8 30.9 17.3 49 7.3 NE 2 7 1 4 1011.2 1011.0 0.0
19/07:00pm 31.1 31.5 16.3 41 9.3 NE 9 11 5 6 1010.9 1010.7 0.0
19/06:30pm 32.0 32.4 16.3 39 9.9 ENE 9 13 5 7 1010.3 1010.1 0.0
19/06:00pm 32.5 32.4 15.9 36 10.4 ENE 11 19 6 10 1009.9 1009.7 0.0
19/05:30pm 33.5 32.6 15.9 34 11.1 NE 15 24 8 13 1009.8 1009.6 0.0
19/05:00pm 32.7 33.5 17.3 39 9.8 E 9 17 5 9 1009.6 1009.4 0.0
19/04:30pm 33.4 33.5 17.5 38 10.2 NE 13 24 7 13 1009.3 1009.1 0.0
19/04:00pm 33.7 33.8 17.4 37 10.5 E 13 26 7 14 1009.5 1009.3 0.0
19/03:30pm 34.6 35.6 18.6 38 10.5 ENE 11 22 6 12 1009.4 1009.2 0.0
19/03:00pm 34.8 36.3 18.8 39 10.5 ENE 9 17 5 9 1009.7 1009.5 0.0
19/02:30pm 34.1 34.9 19.0 41 9.9 ENE 13 20 7 11 1010.3 1010.1 0.0
19/02:00pm 33.0 34.2 19.1 43 9.1 E 11 15 6 8 1010.8 1010.6 0.0
19/01:30pm 33.2 34.3 19.7 45 8.9 ENE 13 22 7 12 1010.9 1010.7 0.0
19/01:00pm 33.3 34.4 20.4 46 8.6 ESE 15 28 8 15 1011.1 1010.9 0.0
19/12:30pm 32.2 34.5 21.4 53 7.3 E 11 24 6 13 1011.4 1011.2 0.0
19/12:00pm 32.2 35.3 22.9 58 6.4 SSE 11 19 6 10 1012.1 1011.9 0.0
19/11:30am 31.1 33.0 21.3 56 6.6 SE 13 22 7 12 1012.9 1012.7 0.0
19/11:00am 30.5 32.7 21.8 59 5.9 SE 13 20 7 11 1013.1 1012.9 0.0
19/10:30am 29.1 29.6 20.8 61 5.5 SE 19 33 10 18 1013.1 1012.9 0.0
19/10:00am 28.9 29.8 20.9 62 5.3 SE 17 28 9 15 1012.8 1012.6 0.0
19/09:30am 27.3 28.8 20.6 67 4.4 SE 13 26 7 14 1012.7 1012.5 0.0
19/09:00am 26.8 27.4 20.2 67 4.3 SSE 17 32 9 17 1012.5 1012.3 0.0
19/08:30am 26.4 28.6 20.3 69 4.0 S 9 17 5 9 1012.3 1012.1 0.0
19/08:00am 25.5 27.4 20.5 74 3.3 SSW 11 17 6 9 1012.3 1012.1 0.0
19/07:30am 24.9 26.3 20.4 76 2.9 S 13 17 7 9 1012.3 1012.1 0.0
19/07:00am 25.0 26.5 20.5 76 2.9 S 13 17 7 9 1011.9 1011.7 0.0
19/06:30am 25.3 26.7 20.3 74 3.3 SSE 13 24 7 13 1011.7 1011.5 0.0
19/06:00am 25.5 27.3 20.3 73 3.4 S 11 17 6 9 1011.4 1011.2 0.0
19/05:30am 25.5 27.7 20.5 74 3.3 S 9 15 5 8 1011.3 1011.1 0.0
19/05:00am 25.2 28.2 20.9 77 2.8 SSW 6 9 3 5 1011.4 1011.2 0.0
19/04:30am 25.2 28.2 20.9 77 2.8 S 6 11 3 6 1011.4 1011.2 0.0
19/04:00am 25.4 28.1 20.6 75 3.1 SSW 7 11 4 6 1011.4 1011.2 0.0
19/03:30am 25.3 27.5 21.2 78 2.7 SSE 11 15 6 8 1011.5 1011.3 0.0
19/03:00am 25.2 27.5 21.3 79 2.6 S 11 17 6 9 1011.5 1011.3 0.0
19/02:30am 24.3 27.5 21.6 85 1.8 S 7 11 4 6 1011.7 1011.5 0.0
19/02:00am 23.6 27.9 21.1 86 1.6 CALM 0 6 0 3 1011.7 1011.5 0.0
19/01:30am 23.8 28.0 20.9 84 1.9 CALM 0 0 0 0 1011.9 1011.7 0.0
19/01:00am 23.7 27.9 21.0 85 1.8 CALM 0 0 0 0 1012.2 1012.0 0.0
19/12:30am 24.2 28.5 21.1 83 2.0 CALM 0 0 0 0 1012.2 1012.0 0.0
19/12:00am 24.0 28.3 21.1 84 1.9 CALM 0 0 0 0 1012.2 1012.0 0.0
 
Date/Time
CST
Temp
°C
App
Temp
°C
Dew
Point
Rel
Hum
%
Delta-T
°C
Wind Press
QNH
hPa
Press
MSL
hPa
Rain
since 9 am
mm
Dir
 
Spd
km/h
Gust
km/h
Spd
kts
Gust
kts
18/11:30pm 24.5 28.8 21.2 82 2.2 CALM 0 0 0 0 1012.4 1012.2 0.0
18/11:00pm 24.5 28.9 21.4 83 2.0 CALM 0 0 0 0 1012.4 1012.2 0.0
18/10:30pm 24.7 29.1 21.4 82 2.2 CALM 0 0 0 0 1012.4 1012.2 0.0
18/10:00pm 25.2 29.5 21.1 78 2.7 CALM 0 0 0 0 1012.4 1012.2 0.0
18/09:30pm 25.7 29.6 20.3 72 3.5 CALM 0 0 0 0 1012.3 1012.1 0.0
18/09:00pm 26.1 30.2 20.7 72 3.5 CALM 0 0 0 0 1012.0 1011.8 0.0
18/08:30pm 26.4 29.1 20.7 71 3.8 S 7 9 4 5 1011.6 1011.4 0.0
18/08:00pm 27.1 29.2 20.2 66 4.5 SSE 9 19 5 10 1011.3 1011.1 0.0
18/07:30pm 27.8 30.6 20.9 66 4.6 SE 7 13 4 7 1011.2 1011.0 0.0
18/07:00pm 29.5 31.8 20.6 58 5.9 NE 9 15 5 8 1010.0 1009.8 0.0
18/06:30pm 30.9 33.2 21.4 57 6.4 N 11 15 6 8 1009.4 1009.2 0.0
18/06:00pm 32.0 34.3 20.6 51 7.6 NNW 9 11 5 6 1009.0 1008.8 0.0

Other Formats:

Comma delimited format used in spreadsheet applications
http://www.bom.gov.au/fwo/IDD60801/IDD60801.94100.axf

JavaScript Object Notation format (JSON) in row-major order
http://www.bom.gov.au/fwo/IDD60801/IDD60801.94100.json